createdAt,value
2019-03-31T00:02:00.553Z,57.07
2019-03-31T00:04:29.065Z,75.20
2019-03-31T00:06:57.625Z,72.63
2019-03-31T00:09:25.963Z,82.47
2019-03-31T00:11:54.371Z,80.03
2019-03-31T00:14:23.532Z,86.30
2019-03-31T00:16:52.633Z,74.50
2019-03-31T00:19:20.901Z,83.40
2019-03-31T00:21:49.059Z,83.47
2019-03-31T00:24:17.673Z,81.47
2019-03-31T00:26:45.931Z,78.67
2019-03-31T00:29:14.255Z,91.40
2019-03-31T00:31:42.629Z,71.60
2019-03-31T00:34:10.769Z,88.07
2019-03-31T00:36:39.060Z,67.50
2019-03-31T00:39:07.260Z,74.70
2019-03-31T00:41:35.518Z,85.60
2019-03-31T00:44:03.795Z,79.17
2019-03-31T00:46:32.684Z,74.67
2019-03-31T00:49:00.893Z,69.17
2019-03-31T00:51:29.462Z,75.93
2019-03-31T00:53:57.610Z,73.17
2019-03-31T00:56:25.800Z,63.93
2019-03-31T00:58:53.965Z,66.40
2019-03-31T01:01:36.302Z,66.37
2019-03-31T01:03:59.816Z,65.67
2019-03-31T01:06:28.720Z,61.50
2019-03-31T01:08:56.979Z,56.50
2019-03-31T01:11:25.642Z,57.47
2019-03-31T01:13:53.988Z,65.00
2019-03-31T01:16:23.199Z,57.93
2019-03-31T01:18:51.599Z,66.23
2019-03-31T01:21:20.071Z,90.77
2019-03-31T01:23:48.588Z,64.07
2019-03-31T01:26:18.536Z,56.67
2019-03-31T01:28:46.858Z,48.93
2019-03-31T01:31:15.192Z,57.73
2019-03-31T01:33:43.766Z,51.23
2019-03-31T01:36:12.017Z,48.80
2019-03-31T01:38:40.504Z,50.03
2019-03-31T01:41:08.808Z,49.50
2019-03-31T01:43:37.370Z,44.10
2019-03-31T01:46:07.147Z,47.47
2019-03-31T01:48:35.362Z,52.97
2019-03-31T01:51:04.221Z,52.47
2019-03-31T01:53:32.471Z,52.60
2019-03-31T01:56:00.638Z,51.00
2019-03-31T01:58:28.818Z,49.87
2019-03-31T02:00:58.650Z,46.67
2019-03-31T02:03:26.906Z,57.10
2019-03-31T02:05:55.301Z,61.00
2019-03-31T02:08:23.479Z,71.90
2019-03-31T02:10:51.741Z,54.47
2019-03-31T02:13:19.899Z,69.70
2019-03-31T02:15:48.091Z,60.70
2019-03-31T02:18:17.252Z,62.90
2019-03-31T02:20:45.588Z,63.57
2019-03-31T02:23:13.815Z,51.40
2019-03-31T02:25:41.975Z,68.93
2019-03-31T02:28:10.162Z,83.70
2019-03-31T02:30:38.343Z,90.00
2019-03-31T02:33:06.504Z,68.83
2019-03-31T02:35:34.692Z,65.47
2019-03-31T02:38:02.914Z,58.90
2019-03-31T02:40:31.250Z,52.10
2019-03-31T02:42:59.432Z,77.23
2019-03-31T02:45:27.614Z,79.73
2019-03-31T02:47:55.782Z,76.60
2019-03-31T02:50:31.624Z,67.07
2019-03-31T02:52:59.806Z,80.13
2019-03-31T02:55:28.075Z,73.23
2019-03-31T02:57:56.365Z,71.00
2019-03-31T03:00:24.956Z,63.23
2019-03-31T03:02:53.422Z,47.97
2019-03-31T03:05:21.653Z,114.40
2019-03-31T03:07:49.825Z,88.33
2019-03-31T03:10:18.026Z,62.90
2019-03-31T03:12:46.210Z,59.77
2019-03-31T03:15:15.990Z,51.20
2019-03-31T03:17:44.153Z,48.67
2019-03-31T03:20:15.150Z,38.07
2019-03-31T03:22:52.229Z,57.20
2019-03-31T03:25:20.421Z,38.27
2019-03-31T03:27:55.742Z,52.17
2019-03-31T03:30:23.980Z,72.67
2019-03-31T03:33:13.346Z,62.27
2019-03-31T03:35:22.102Z,90.30
2019-03-31T03:37:50.287Z,93.40
2019-03-31T03:40:18.435Z,65.93
2019-03-31T03:42:46.710Z,70.40
2019-03-31T03:45:14.909Z,65.77
2019-03-31T03:47:43.067Z,122.77
2019-03-31T03:50:11.223Z,78.77
2019-03-31T03:52:39.466Z,144.47
2019-03-31T03:55:07.718Z,119.50
2019-03-31T03:57:35.861Z,72.03
2019-03-31T04:00:05.137Z,140.87
2019-03-31T04:02:33.369Z,60.80
2019-03-31T04:05:01.598Z,56.23
2019-03-31T04:07:29.775Z,58.80
2019-03-31T04:09:57.927Z,72.83
2019-03-31T04:12:26.172Z,78.37
2019-03-31T04:14:54.378Z,79.00
2019-03-31T04:17:22.571Z,77.63
2019-03-31T04:19:50.746Z,76.57
2019-03-31T04:22:19.937Z,76.57
2019-03-31T04:24:48.076Z,67.00
2019-03-31T04:27:18.851Z,68.60
2019-03-31T04:29:46.131Z,91.50
2019-03-31T04:32:14.369Z,82.70
2019-03-31T04:34:42.567Z,72.30
2019-03-31T04:37:10.796Z,78.63
2019-03-31T04:39:38.968Z,89.97
2019-03-31T04:42:07.125Z,139.03
2019-03-31T04:44:35.325Z,95.37
2019-03-31T04:47:03.614Z,77.63
2019-03-31T04:49:31.747Z,88.93
2019-03-31T04:52:00.094Z,84.67
2019-03-31T04:54:28.221Z,85.80
2019-03-31T04:56:56.373Z,85.80
2019-03-31T04:59:24.640Z,77.70
2019-03-31T05:01:52.828Z,78.30
2019-03-31T05:04:21.006Z,72.47
2019-03-31T05:06:49.182Z,69.20
2019-03-31T05:09:17.336Z,77.50
2019-03-31T05:11:45.482Z,80.53
2019-03-31T05:14:13.754Z,75.73
2019-03-31T05:16:41.942Z,79.00
2019-03-31T05:19:10.159Z,83.67
2019-03-31T05:21:38.383Z,78.97
2019-03-31T05:24:07.425Z,80.93
2019-03-31T05:29:21.497Z,71.83
2019-03-31T05:31:49.677Z,80.30
2019-03-31T05:34:19.435Z,71.70
2019-03-31T05:36:47.725Z,73.87
2019-03-31T05:39:15.863Z,74.67
2019-03-31T05:41:44.057Z,67.43
2019-03-31T05:44:12.254Z,62.63
2019-03-31T05:46:40.446Z,58.93
2019-03-31T05:49:08.714Z,82.77
2019-03-31T05:51:36.955Z,133.40
2019-03-31T05:54:05.118Z,115.27
2019-03-31T05:56:33.644Z,96.97
2019-03-31T05:59:02.205Z,76.27
2019-03-31T06:01:30.553Z,93.97
2019-03-31T06:03:58.773Z,72.70
2019-03-31T06:06:27.002Z,41.87
2019-03-31T06:08:55.139Z,45.80
2019-03-31T06:11:23.296Z,42.27
2019-03-31T06:13:51.489Z,51.10
2019-03-31T06:16:19.681Z,48.00
2019-03-31T06:18:47.917Z,41.10
2019-03-31T06:21:16.246Z,45.77
2019-03-31T06:23:44.703Z,42.87
2019-03-31T06:26:13.912Z,63.33
2019-03-31T06:28:42.202Z,46.77
2019-03-31T06:31:10.376Z,49.53
2019-03-31T06:33:38.556Z,46.17
2019-03-31T06:36:06.820Z,36.43
2019-03-31T06:38:35.008Z,37.50
2019-03-31T06:41:04.135Z,42.97
2019-03-31T06:43:32.605Z,41.70
2019-03-31T06:46:01.080Z,35.73
2019-03-31T06:48:29.453Z,37.97
2019-03-31T06:50:57.639Z,37.73
2019-03-31T06:53:26.094Z,36.83
2019-03-31T06:55:54.403Z,48.93
2019-03-31T06:58:22.634Z,44.20
2019-03-31T07:00:50.830Z,38.83
2019-03-31T07:03:19.324Z,37.23
2019-03-31T07:05:47.714Z,35.17
2019-03-31T07:08:15.984Z,25.43
2019-03-31T07:10:44.662Z,24.87
2019-03-31T07:13:13.019Z,24.10
2019-03-31T07:15:41.200Z,20.53
2019-03-31T07:18:09.338Z,25.57
2019-03-31T07:20:37.609Z,38.90
2019-03-31T07:23:05.966Z,23.20
2019-03-31T07:25:37.045Z,25.17
2019-03-31T07:28:05.358Z,25.83
2019-03-31T07:30:33.493Z,25.43
2019-03-31T07:33:02.131Z,27.30
2019-03-31T07:35:30.273Z,32.53
2019-03-31T07:37:58.661Z,35.67
2019-03-31T07:40:26.913Z,37.20
2019-03-31T07:42:55.699Z,37.30
2019-03-31T07:45:24.006Z,34.43
2019-03-31T07:47:52.396Z,39.13
2019-03-31T07:50:20.820Z,55.17
2019-03-31T07:52:49.222Z,42.60
2019-03-31T07:55:17.597Z,30.27
2019-03-31T07:57:46.018Z,31.33
2019-03-31T08:00:18.825Z,31.43
2019-03-31T08:02:47.025Z,24.90
2019-03-31T08:05:15.207Z,24.67
2019-03-31T08:07:43.494Z,26.17
2019-03-31T08:10:11.707Z,24.73
2019-03-31T08:12:40.057Z,27.13
2019-03-31T08:15:08.542Z,23.60
2019-03-31T08:17:36.675Z,20.93
2019-03-31T08:20:09.220Z,18.47
2019-03-31T08:22:37.464Z,18.97
2019-03-31T08:25:05.928Z,21.20
2019-03-31T08:27:34.537Z,17.37
2019-03-31T08:30:04.351Z,15.33
2019-03-31T08:32:32.498Z,16.37
2019-03-31T08:35:00.750Z,21.87
2019-03-31T08:37:29.368Z,16.07
2019-03-31T08:39:57.492Z,18.30
2019-03-31T08:42:25.676Z,18.07
2019-03-31T08:44:53.967Z,19.37
2019-03-31T08:47:22.469Z,17.37
2019-03-31T08:49:50.626Z,17.73
2019-03-31T08:52:19.129Z,17.27
2019-03-31T08:54:47.441Z,15.77
2019-03-31T08:57:15.634Z,17.70
2019-03-31T08:59:43.824Z,15.10
2019-03-31T09:02:22.763Z,14.80
2019-03-31T09:04:51.261Z,35.37
2019-03-31T09:07:19.605Z,21.30
2019-03-31T09:09:47.989Z,16.50
2019-03-31T09:12:16.689Z,15.00
2019-03-31T09:14:45.236Z,15.00
2019-03-31T09:17:15.643Z,16.83
2019-03-31T09:19:43.917Z,19.80
2019-03-31T09:22:12.230Z,17.73
2019-03-31T09:24:42.583Z,20.30
2019-03-31T09:27:13.029Z,34.67
2019-03-31T09:29:41.584Z,15.30
2019-03-31T09:32:10.830Z,15.13
2019-03-31T09:34:39.376Z,16.20
2019-03-31T09:37:07.951Z,15.47
2019-03-31T09:39:36.729Z,14.10
2019-03-31T09:42:05.206Z,16.13
2019-03-31T09:44:35.313Z,22.00
2019-03-31T09:47:03.962Z,15.23
2019-03-31T09:49:32.391Z,17.90
2019-03-31T09:52:00.711Z,30.15
2019-03-31T09:54:29.392Z,20.17
2019-03-31T09:56:57.751Z,18.10
2019-03-31T09:59:26.101Z,21.45
2019-03-31T10:01:55.431Z,15.50
2019-03-31T10:04:23.778Z,18.95
2019-03-31T10:06:52.574Z,17.57
2019-03-31T10:09:20.813Z,16.17
2019-03-31T10:11:49.096Z,16.90
2019-03-31T10:14:17.379Z,13.68
2019-03-31T10:16:45.852Z,13.05
2019-03-31T10:19:14.162Z,15.30
2019-03-31T10:21:42.680Z,11.90
2019-03-31T10:24:11.094Z,13.35
2019-03-31T10:26:39.345Z,13.40
2019-03-31T10:29:07.928Z,12.88
2019-03-31T10:31:36.330Z,14.15
2019-03-31T10:34:05.414Z,13.18
2019-03-31T10:36:44.537Z,12.47
2019-03-31T10:39:05.787Z,13.93
2019-03-31T10:41:34.238Z,17.23
2019-03-31T10:44:02.645Z,16.55
2019-03-31T10:46:31.298Z,13.60
2019-03-31T10:48:59.904Z,15.93
2019-03-31T10:51:28.116Z,12.58
2019-03-31T10:53:56.500Z,13.75
2019-03-31T10:56:25.112Z,12.58
2019-03-31T10:58:53.712Z,15.50
2019-03-31T11:01:22.917Z,13.60
2019-03-31T11:03:51.411Z,12.85
2019-03-31T11:06:19.621Z,23.38
2019-03-31T11:08:48.186Z,16.65
2019-03-31T11:11:16.372Z,19.62
2019-03-31T11:13:44.583Z,13.08
2019-03-31T11:16:13.161Z,13.28
2019-03-31T11:18:41.578Z,14.93
2019-03-31T11:21:11.414Z,15.50
2019-03-31T11:23:39.823Z,13.70
2019-03-31T11:26:08.309Z,13.68
2019-03-31T11:28:36.550Z,16.12
2019-03-31T11:31:05.136Z,13.93
2019-03-31T11:33:33.372Z,14.35
2019-03-31T11:36:02.588Z,15.58
2019-03-31T11:38:31.100Z,14.75
2019-03-31T11:41:00.178Z,12.90
2019-03-31T11:43:29.275Z,11.65
2019-03-31T11:45:58.099Z,29.92
2019-03-31T11:48:27.524Z,15.88
2019-03-31T11:51:00.355Z,15.15
2019-03-31T11:53:28.124Z,10.15
2019-03-31T11:55:56.846Z,11.22
2019-03-31T11:58:25.022Z,12.60
2019-03-31T12:00:55.428Z,12.23
2019-03-31T12:03:23.711Z,12.45
2019-03-31T12:05:51.911Z,10.98
2019-03-31T12:08:20.758Z,11.45
2019-03-31T12:10:52.450Z,9.75
2019-03-31T12:13:21.713Z,10.72
2019-03-31T12:15:52.089Z,15.10
2019-03-31T12:18:20.318Z,10.82
2019-03-31T12:20:48.826Z,11.30
2019-03-31T12:23:17.188Z,14.53
2019-03-31T12:25:45.368Z,14.63
2019-03-31T12:28:13.632Z,14.28
2019-03-31T12:30:41.880Z,17.82
2019-03-31T12:33:10.449Z,14.13
2019-03-31T12:35:38.760Z,12.15
2019-03-31T12:38:08.025Z,8.53
2019-03-31T12:40:36.660Z,10.75
2019-03-31T12:43:04.893Z,10.65
2019-03-31T12:45:33.587Z,9.55
2019-03-31T12:48:01.881Z,18.92
2019-03-31T12:50:30.149Z,12.37
2019-03-31T12:52:58.592Z,8.68
2019-03-31T12:55:27.328Z,9.30
2019-03-31T12:57:57.657Z,8.60
2019-03-31T13:00:27.386Z,11.22
2019-03-31T13:02:55.947Z,15.30
2019-03-31T13:05:24.535Z,12.05
2019-03-31T13:07:56.711Z,13.48
2019-03-31T13:10:22.934Z,12.53
2019-03-31T13:12:51.249Z,10.58
2019-03-31T13:15:20.186Z,12.25
2019-03-31T13:17:48.774Z,10.80
2019-03-31T13:20:17.341Z,14.60
2019-03-31T13:22:46.119Z,11.57
2019-03-31T13:25:14.705Z,11.88
2019-03-31T13:27:43.019Z,15.88
2019-03-31T13:30:11.467Z,10.15
2019-03-31T13:32:40.060Z,12.90
2019-03-31T13:35:08.777Z,12.30
2019-03-31T13:37:37.419Z,10.87
2019-03-31T13:40:06.980Z,11.85
2019-03-31T13:42:35.297Z,11.97
2019-03-31T13:45:04.922Z,17.10
2019-03-31T13:47:33.190Z,29.98
2019-03-31T13:50:01.472Z,15.08
2019-03-31T13:52:29.870Z,18.80
2019-03-31T13:54:58.161Z,13.78
2019-03-31T13:57:27.037Z,12.30
2019-03-31T13:59:56.285Z,14.25
2019-03-31T14:02:24.644Z,12.47
2019-03-31T14:04:53.288Z,13.30
2019-03-31T14:07:21.641Z,17.00
2019-03-31T14:09:50.133Z,14.33
2019-03-31T14:12:18.611Z,12.37
2019-03-31T14:14:46.880Z,17.25
2019-03-31T14:17:15.572Z,13.80
2019-03-31T14:19:44.053Z,15.68
2019-03-31T14:22:12.309Z,15.80
2019-03-31T14:24:40.675Z,14.15
2019-03-31T14:27:09.271Z,13.93
2019-03-31T14:29:38.126Z,12.50
2019-03-31T14:32:06.607Z,14.00
2019-03-31T14:34:35.345Z,14.70
2019-03-31T14:37:03.818Z,13.30
2019-03-31T14:39:32.027Z,14.53
2019-03-31T14:42:01.299Z,12.17
2019-03-31T14:44:29.652Z,15.90
2019-03-31T14:46:57.943Z,14.53
2019-03-31T14:49:26.176Z,13.97
2019-03-31T14:51:54.787Z,14.73
2019-03-31T14:54:23.069Z,13.53
2019-03-31T14:56:51.273Z,14.40
2019-03-31T14:59:19.613Z,14.17
2019-03-31T15:01:47.854Z,14.47
2019-03-31T15:04:16.485Z,13.80
2019-03-31T15:06:45.049Z,14.90
2019-03-31T15:09:13.326Z,17.70
2019-03-31T15:11:42.335Z,14.57
2019-03-31T15:14:10.870Z,15.87
2019-03-31T15:16:39.146Z,14.73
2019-03-31T15:19:07.451Z,15.97
2019-03-31T15:21:44.159Z,17.33
2019-03-31T15:24:06.585Z,14.83
2019-03-31T15:26:35.473Z,14.00
2019-03-31T15:29:04.131Z,13.97
2019-03-31T15:31:32.631Z,10.60
2019-03-31T15:34:00.819Z,9.87
2019-03-31T15:36:29.586Z,10.93
2019-03-31T15:39:08.715Z,10.32
2019-03-31T15:41:28.271Z,10.80
2019-03-31T15:43:57.764Z,16.27
2019-03-31T15:46:26.168Z,14.47
2019-03-31T15:48:55.082Z,31.17
2019-03-31T15:51:23.724Z,15.90
2019-03-31T15:53:52.084Z,16.30
2019-03-31T15:56:20.534Z,15.97
2019-03-31T15:58:50.137Z,17.13
2019-03-31T16:01:18.489Z,20.87
2019-03-31T16:03:46.859Z,23.37
2019-03-31T16:06:15.438Z,20.73
2019-03-31T16:08:43.704Z,15.77
2019-03-31T16:11:11.993Z,18.50
2019-03-31T16:13:40.484Z,15.47
2019-03-31T16:16:09.328Z,17.17
2019-03-31T16:18:38.267Z,18.63
2019-03-31T16:21:06.742Z,18.50
2019-03-31T16:23:34.899Z,25.47
2019-03-31T16:26:03.461Z,24.90
2019-03-31T16:28:31.967Z,17.67
2019-03-31T16:31:00.159Z,14.97
2019-03-31T16:33:28.735Z,14.57
2019-03-31T16:35:57.042Z,13.97
2019-03-31T16:38:25.858Z,13.50
2019-03-31T16:40:54.805Z,16.60
2019-03-31T16:43:23.058Z,15.37
2019-03-31T16:45:51.973Z,15.00
2019-03-31T16:48:20.184Z,12.40
2019-03-31T16:50:50.987Z,14.07
2019-03-31T16:53:20.590Z,17.47
2019-03-31T16:55:48.930Z,17.53
2019-03-31T16:58:17.190Z,15.50
2019-03-31T17:00:45.484Z,12.90
2019-03-31T17:03:14.026Z,17.70
2019-03-31T17:05:42.329Z,14.23
2019-03-31T17:08:10.832Z,21.47
2019-03-31T17:10:39.429Z,16.43
2019-03-31T17:13:07.776Z,44.33
2019-03-31T17:15:36.319Z,51.50
2019-03-31T17:18:05.271Z,53.37
2019-03-31T17:20:34.177Z,57.67
2019-03-31T17:23:03.368Z,58.80
2019-03-31T17:25:31.603Z,69.40
2019-03-31T17:28:04.463Z,60.80
2019-03-31T17:30:32.826Z,68.67
2019-03-31T17:33:02.630Z,61.60
2019-03-31T17:35:33.216Z,55.67
2019-03-31T17:38:01.522Z,51.83
2019-03-31T17:40:34.907Z,55.60
2019-03-31T17:43:04.059Z,57.43
2019-03-31T17:45:32.996Z,51.47
2019-03-31T17:48:02.315Z,62.13
2019-03-31T17:50:31.114Z,67.17
2019-03-31T17:52:59.628Z,65.17
2019-03-31T17:55:29.333Z,65.13
2019-03-31T17:58:00.158Z,90.47
2019-03-31T18:00:29.857Z,83.30
2019-03-31T18:02:58.300Z,72.43
2019-03-31T18:05:26.662Z,61.20
2019-03-31T18:07:58.505Z,58.33
2019-03-31T18:10:28.126Z,61.17
2019-03-31T18:12:56.759Z,59.77
2019-03-31T18:15:25.293Z,72.47
2019-03-31T18:17:55.402Z,73.97
2019-03-31T18:20:25.546Z,61.60
2019-03-31T18:22:54.232Z,50.03
2019-03-31T18:25:26.269Z,44.83
2019-03-31T18:27:56.914Z,78.00
2019-03-31T18:30:28.256Z,76.63
2019-03-31T18:33:07.565Z,65.23
2019-03-31T18:35:39.843Z,67.07
2019-03-31T18:38:12.547Z,88.07
2019-03-31T18:40:41.163Z,97.43
2019-03-31T18:43:12.274Z,85.63
2019-03-31T18:45:40.739Z,93.17
2019-03-31T18:48:09.413Z,86.40
2019-03-31T18:50:41.786Z,92.27
2019-03-31T18:53:17.151Z,90.63
2019-03-31T18:55:52.274Z,96.63
2019-03-31T18:58:34.777Z,102.87
2019-03-31T19:01:13.679Z,100.67
2019-03-31T19:03:53.989Z,89.83
2019-03-31T19:06:23.574Z,89.10
2019-03-31T19:09:03.126Z,103.93
2019-03-31T19:11:45.580Z,82.10
2019-03-31T19:14:27.612Z,69.80
2019-03-31T19:17:01.827Z,77.27
2019-03-31T19:19:31.849Z,43.33
2019-03-31T19:22:07.904Z,50.97
2019-03-31T19:24:46.022Z,39.63
2019-03-31T19:27:32.853Z,65.73
2019-03-31T19:30:17.881Z,87.10
2019-03-31T19:33:05.821Z,39.77
2019-03-31T19:35:37.814Z,48.03
2019-03-31T19:38:07.659Z,58.57
2019-03-31T19:41:03.984Z,43.63
2019-03-31T19:43:26.260Z,48.87
2019-03-31T19:46:08.434Z,46.93
2019-03-31T19:48:41.658Z,49.13
2019-03-31T19:51:14.583Z,40.87
2019-03-31T19:54:03.587Z,45.90
2019-03-31T19:56:38.535Z,42.60
2019-03-31T19:59:25.062Z,69.67
2019-03-31T20:01:54.974Z,95.57
2019-03-31T20:04:33.157Z,69.90
2019-03-31T20:07:03.278Z,56.10
2019-03-31T20:09:33.074Z,55.13
2019-03-31T20:12:08.081Z,58.17
2019-03-31T20:14:54.709Z,97.93
2019-03-31T20:17:33.657Z,57.03
2019-03-31T20:20:07.252Z,61.37
2019-03-31T20:22:48.725Z,56.47
2019-03-31T20:25:39.721Z,50.47
2019-03-31T20:28:24.131Z,43.50
2019-03-31T20:30:54.483Z,55.10
2019-03-31T20:33:34.982Z,48.37
2019-03-31T20:36:13.916Z,38.57
2019-03-31T20:38:55.526Z,32.97
2019-03-31T20:41:37.085Z,53.57
2019-03-31T20:44:07.421Z,37.50
2019-03-31T20:46:35.614Z,43.10
2019-03-31T20:49:07.660Z,37.33
2019-03-31T20:51:35.809Z,65.90
2019-03-31T20:54:05.006Z,38.13
2019-03-31T20:56:33.495Z,37.87
2019-03-31T20:59:01.975Z,55.13
2019-03-31T21:01:33.133Z,46.37
2019-03-31T21:04:01.482Z,48.53
2019-03-31T21:06:31.992Z,29.07
2019-03-31T21:09:06.399Z,31.23
2019-03-31T21:11:37.159Z,32.07
2019-03-31T21:14:05.456Z,27.97
2019-03-31T21:16:36.078Z,30.17
2019-03-31T21:19:06.684Z,29.70
2019-03-31T21:21:34.870Z,44.30
2019-03-31T21:24:05.660Z,42.80
2019-03-31T21:26:34.162Z,38.63
2019-03-31T21:29:04.731Z,40.40
2019-03-31T21:31:32.921Z,40.47
2019-03-31T21:34:03.418Z,42.53
2019-03-31T21:36:31.887Z,41.73
2019-03-31T21:39:00.035Z,36.37
2019-03-31T21:41:28.333Z,37.33
2019-03-31T21:44:03.351Z,31.37
2019-03-31T21:46:31.556Z,31.80
2019-03-31T21:49:04.536Z,25.53
2019-03-31T21:51:33.172Z,25.60
2019-03-31T21:54:01.369Z,24.50
2019-03-31T21:56:30.600Z,24.90
2019-03-31T21:58:58.852Z,28.20
2019-03-31T22:01:27.129Z,28.30
2019-03-31T22:03:58.228Z,26.73
2019-03-31T22:06:26.413Z,29.27
2019-03-31T22:08:54.720Z,32.10
2019-03-31T22:11:23.099Z,23.40
2019-03-31T22:13:51.587Z,45.10
2019-03-31T22:16:19.818Z,35.30
2019-03-31T22:18:50.555Z,34.07
2019-03-31T22:21:21.153Z,54.80
2019-03-31T22:23:57.684Z,26.50
2019-03-31T22:26:24.101Z,29.87
2019-03-31T22:28:54.521Z,30.17
2019-03-31T22:31:22.905Z,28.83
2019-03-31T22:33:51.103Z,25.43
2019-03-31T22:36:23.123Z,26.97
2019-03-31T22:38:51.869Z,24.23
2019-03-31T22:41:20.649Z,21.07
2019-03-31T22:43:49.420Z,24.97
2019-03-31T22:46:19.583Z,20.67
2019-03-31T22:48:49.981Z,19.17
2019-03-31T22:51:18.312Z,25.20
2019-03-31T22:53:46.905Z,23.50
2019-03-31T22:56:18.441Z,23.60
2019-03-31T22:58:47.683Z,20.67
2019-03-31T23:01:15.845Z,22.20
2019-03-31T23:03:46.468Z,23.43
2019-03-31T23:06:17.219Z,24.80
2019-03-31T23:08:45.892Z,23.20
2019-03-31T23:11:16.375Z,23.80
2019-03-31T23:13:44.759Z,23.27
2019-03-31T23:16:13.097Z,20.97
2019-03-31T23:18:41.704Z,23.83
2019-03-31T23:21:12.240Z,29.00
2019-03-31T23:23:40.536Z,26.20
2019-03-31T23:26:11.085Z,24.10
2019-03-31T23:28:40.862Z,23.70
2019-03-31T23:31:11.734Z,29.23
2019-03-31T23:33:39.961Z,26.97
2019-03-31T23:36:08.100Z,25.33
2019-03-31T23:38:36.298Z,22.60
2019-03-31T23:41:04.660Z,20.47
2019-03-31T23:43:35.433Z,24.47
2019-03-31T23:46:05.993Z,24.60
2019-03-31T23:48:34.529Z,21.67
2019-03-31T23:51:07.490Z,22.17
2019-03-31T23:53:35.869Z,61.60
2019-03-31T23:56:04.401Z,23.27
2019-03-31T23:58:37.923Z,26.37
